createdAt,value
2023-04-18T00:01:23.103Z,80.36
2023-04-18T00:03:50.810Z,80.40
2023-04-18T00:06:17.616Z,80.23
2023-04-18T00:08:43.965Z,80.42
2023-04-18T00:11:10.804Z,80.42
2023-04-18T00:13:38.486Z,80.41
2023-04-18T00:16:05.941Z,80.65
2023-04-18T00:18:32.982Z,80.47
2023-04-18T00:20:59.432Z,80.39
2023-04-18T00:23:27.958Z,80.61
2023-04-18T00:25:54.401Z,80.61
2023-04-18T00:28:20.881Z,80.59
2023-04-18T00:30:47.322Z,80.38
2023-04-18T00:33:13.745Z,80.65
2023-04-18T00:35:40.296Z,80.45
2023-04-18T00:38:06.883Z,80.53
2023-04-18T00:40:33.412Z,80.52
2023-04-18T00:43:00.598Z,80.66
2023-04-18T00:45:27.008Z,80.66
2023-04-18T00:47:53.490Z,80.63
2023-04-18T00:50:20.563Z,80.59
2023-04-18T00:52:47.434Z,80.72
2023-04-18T00:55:13.983Z,80.52
2023-04-18T00:57:40.704Z,80.62
2023-04-18T01:00:10.476Z,80.52
2023-04-18T01:02:38.341Z,80.65
2023-04-18T01:05:06.073Z,80.55
2023-04-18T01:07:34.897Z,80.52
2023-04-18T01:10:02.171Z,80.88
2023-04-18T01:12:28.578Z,80.64
2023-04-18T01:14:55.200Z,80.65
2023-04-18T01:17:23.246Z,80.66
2023-04-18T01:19:49.828Z,80.41
2023-04-18T01:22:17.234Z,80.41
2023-04-18T01:24:43.621Z,80.74
2023-04-18T01:27:13.851Z,80.75
2023-04-18T01:29:41.145Z,80.59
2023-04-18T01:32:07.753Z,80.41
2023-04-18T01:34:34.267Z,80.70
2023-04-18T01:37:00.806Z,80.83
2023-04-18T01:39:28.145Z,80.92
2023-04-18T01:41:54.628Z,80.74
2023-04-18T01:44:21.186Z,81.08
2023-04-18T01:46:47.660Z,80.94
2023-04-18T01:49:14.194Z,80.86
2023-04-18T01:51:40.931Z,80.95
2023-04-18T01:54:07.387Z,80.87
2023-04-18T01:56:33.826Z,80.77
2023-04-18T01:59:00.381Z,80.71
2023-04-18T02:01:27.011Z,80.85
2023-04-18T02:03:53.724Z,80.92
2023-04-18T02:06:20.719Z,80.84
2023-04-18T02:08:47.150Z,80.72
2023-04-18T02:11:13.578Z,80.88
2023-04-18T02:13:40.079Z,80.80
2023-04-18T02:16:11.519Z,80.95
2023-04-18T02:18:40.091Z,80.91
2023-04-18T02:21:07.313Z,81.12
2023-04-18T02:23:33.709Z,81.06
2023-04-18T02:26:00.199Z,80.88
2023-04-18T02:28:26.559Z,81.07
2023-04-18T02:30:53.012Z,80.96
2023-04-18T02:33:19.402Z,81.07
2023-04-18T02:35:45.785Z,81.26
2023-04-18T02:38:13.774Z,81.32
2023-04-18T02:40:40.205Z,81.27
2023-04-18T02:43:06.726Z,81.43
2023-04-18T02:45:33.209Z,81.19
2023-04-18T02:47:59.687Z,81.47
2023-04-18T02:50:26.896Z,81.29
2023-04-18T02:52:53.457Z,81.36
2023-04-18T02:55:20.960Z,81.51
2023-04-18T02:57:47.950Z,81.42
2023-04-18T03:00:14.769Z,81.63
2023-04-18T03:02:41.510Z,81.65
2023-04-18T03:05:08.157Z,81.45
2023-04-18T03:07:34.537Z,81.76
2023-04-18T03:10:00.915Z,81.56
2023-04-18T03:12:27.347Z,81.32
2023-04-18T03:14:53.768Z,81.77
2023-04-18T03:17:20.546Z,81.65
2023-04-18T03:19:46.953Z,81.67
2023-04-18T03:22:14.197Z,81.56
2023-04-18T03:24:40.837Z,81.53
2023-04-18T03:27:07.469Z,81.60
2023-04-18T03:29:34.121Z,81.56
2023-04-18T03:32:00.610Z,81.67
2023-04-18T03:34:27.082Z,81.67
2023-04-18T03:36:53.975Z,81.81
2023-04-18T03:39:20.537Z,81.49
2023-04-18T03:41:46.943Z,81.47
2023-04-18T03:44:13.601Z,81.75
2023-04-18T03:46:40.647Z,81.80
2023-04-18T03:49:07.141Z,81.77
2023-04-18T03:51:42.016Z,81.80
2023-04-18T03:54:08.477Z,81.55
2023-04-18T03:56:35.703Z,81.90
2023-04-18T03:59:02.135Z,81.91
2023-04-18T04:01:28.768Z,82.09
2023-04-18T04:03:55.219Z,82.10
2023-04-18T04:06:21.953Z,81.87
2023-04-18T04:08:48.440Z,81.82
2023-04-18T04:11:14.947Z,81.84
2023-04-18T04:13:41.284Z,82.16
2023-04-18T04:16:08.017Z,81.82
2023-04-18T04:18:34.539Z,81.71
2023-04-18T04:21:01.063Z,81.87
2023-04-18T04:23:27.571Z,82.22
2023-04-18T04:25:54.888Z,81.89
2023-04-18T04:28:26.334Z,81.95
2023-04-18T04:30:53.126Z,82.28
2023-04-18T04:33:20.410Z,82.14
2023-04-18T04:35:47.222Z,81.96
2023-04-18T04:38:15.350Z,82.36
2023-04-18T04:40:42.578Z,82.58
2023-04-18T04:43:12.597Z,82.28
2023-04-18T04:45:42.188Z,82.31
2023-04-18T04:48:10.027Z,82.18
2023-04-18T04:50:40.546Z,82.36
2023-04-18T04:53:07.281Z,82.40
2023-04-18T04:55:34.543Z,82.14
2023-04-18T04:58:00.936Z,82.33
2023-04-18T05:00:28.773Z,82.29
2023-04-18T05:02:57.004Z,82.28
2023-04-18T05:05:23.462Z,82.18
2023-04-18T05:07:50.476Z,82.29
2023-04-18T05:10:17.064Z,82.25
2023-04-18T05:12:43.532Z,82.52
2023-04-18T05:15:10.454Z,82.21
2023-04-18T05:17:36.909Z,82.20
2023-04-18T05:20:04.241Z,82.13
2023-04-18T05:22:30.636Z,82.12
2023-04-18T05:24:57.124Z,82.17
2023-04-18T05:27:23.726Z,82.04
2023-04-18T05:29:50.246Z,81.96
2023-04-18T05:32:16.807Z,81.95
2023-04-18T05:34:43.398Z,81.92
2023-04-18T05:37:09.932Z,81.93
2023-04-18T05:39:36.489Z,81.70
2023-04-18T05:42:03.325Z,82.09
2023-04-18T05:44:30.203Z,81.73
2023-04-18T05:46:56.733Z,81.67
2023-04-18T05:49:23.688Z,81.79
2023-04-18T05:51:50.573Z,81.81
2023-04-18T05:54:17.147Z,81.85
2023-04-18T05:56:43.662Z,81.74
2023-04-18T05:59:10.464Z,81.81
2023-04-18T06:01:36.991Z,81.53
2023-04-18T06:04:03.678Z,81.78
2023-04-18T06:06:31.459Z,81.82
2023-04-18T06:08:58.027Z,81.74
2023-04-18T06:11:24.433Z,81.44
2023-04-18T06:13:50.972Z,81.42
2023-04-18T06:16:17.419Z,81.29
2023-04-18T06:18:43.921Z,81.53
2023-04-18T06:21:10.323Z,81.67
2023-04-18T06:23:38.446Z,81.69
2023-04-18T06:26:06.086Z,81.51
2023-04-18T06:28:32.480Z,81.47
2023-04-18T06:30:59.001Z,81.34
2023-04-18T06:33:25.580Z,81.08
2023-04-18T06:35:52.761Z,81.23
2023-04-18T06:38:19.345Z,80.96
2023-04-18T06:40:47.103Z,81.18
2023-04-18T06:43:13.541Z,81.19
2023-04-18T06:45:40.255Z,80.91
2023-04-18T06:48:08.974Z,81.28
2023-04-18T06:50:35.473Z,81.08
2023-04-18T06:53:02.197Z,80.96
2023-04-18T06:55:28.611Z,81.00
2023-04-18T06:57:55.020Z,80.94
2023-04-18T07:00:21.823Z,80.98
2023-04-18T07:02:48.649Z,80.99
2023-04-18T07:05:15.196Z,81.06
2023-04-18T07:07:41.647Z,80.78
2023-04-18T07:10:09.822Z,80.91
2023-04-18T07:12:36.384Z,80.87
2023-04-18T07:15:03.790Z,80.88
2023-04-18T07:17:30.418Z,80.84
2023-04-18T07:19:56.832Z,80.67
2023-04-18T07:22:23.237Z,80.63
2023-04-18T07:24:49.678Z,80.59
2023-04-18T07:27:16.148Z,80.71
2023-04-18T07:29:42.592Z,80.43
2023-04-18T07:32:09.049Z,80.38
2023-04-18T07:34:36.056Z,80.30
2023-04-18T07:37:02.475Z,80.32
2023-04-18T07:39:28.902Z,80.34
2023-04-18T07:41:55.402Z,80.00
2023-04-18T07:44:21.893Z,80.17
2023-04-18T07:46:48.385Z,80.10
2023-04-18T07:49:16.241Z,79.99
2023-04-18T07:51:42.859Z,79.97
2023-04-18T07:54:11.039Z,79.89
2023-04-18T07:56:37.418Z,80.09
2023-04-18T07:59:03.774Z,79.55
2023-04-18T08:01:30.992Z,79.57
2023-04-18T08:04:01.461Z,79.53
2023-04-18T08:06:29.072Z,79.01
2023-04-18T08:08:55.675Z,79.29
2023-04-18T08:11:22.158Z,79.05
2023-04-18T08:13:48.603Z,79.12
2023-04-18T08:16:17.269Z,78.80
2023-04-18T08:18:44.189Z,78.53
2023-04-18T08:21:10.689Z,77.98
2023-04-18T08:23:37.094Z,77.89
2023-04-18T08:26:03.524Z,77.86
2023-04-18T08:28:30.063Z,77.85
2023-04-18T08:30:56.652Z,77.92
2023-04-18T08:33:23.734Z,78.04
2023-04-18T08:35:53.159Z,77.92
2023-04-18T08:38:19.949Z,77.95
2023-04-18T08:40:47.144Z,77.77
2023-04-18T08:43:15.098Z,77.85
2023-04-18T08:45:42.881Z,77.51
2023-04-18T08:48:13.749Z,77.46
2023-04-18T08:50:41.417Z,76.85
2023-04-18T08:53:08.615Z,76.88
2023-04-18T08:55:35.746Z,77.01
2023-04-18T08:58:04.776Z,77.15
2023-04-18T09:00:31.207Z,77.40
2023-04-18T09:02:58.247Z,77.23
2023-04-18T09:05:26.938Z,77.35
2023-04-18T09:07:56.289Z,77.45
2023-04-18T09:10:33.587Z,77.30
2023-04-18T09:13:03.076Z,77.33
2023-04-18T09:15:30.090Z,77.32
2023-04-18T09:17:58.920Z,77.27
2023-04-18T09:20:43.837Z,77.14
2023-04-18T09:23:14.346Z,77.00
2023-04-18T09:25:49.160Z,77.01
2023-04-18T09:28:23.420Z,76.98
2023-04-18T09:30:54.185Z,76.96
2023-04-18T09:33:34.276Z,76.63
2023-04-18T09:36:27.952Z,76.50
2023-04-18T09:38:56.665Z,76.41
2023-04-18T09:41:24.101Z,76.36
2023-04-18T09:44:07.518Z,76.05
2023-04-18T09:46:33.959Z,76.01
2023-04-18T09:49:00.967Z,75.68
2023-04-18T09:51:28.511Z,75.73
2023-04-18T09:53:55.240Z,75.51
2023-04-18T09:56:27.669Z,75.36
2023-04-18T09:59:04.780Z,74.85
2023-04-18T10:01:31.756Z,74.69
2023-04-18T10:04:02.236Z,74.58
2023-04-18T10:06:30.219Z,74.66
2023-04-18T10:08:57.100Z,74.69
2023-04-18T10:11:24.403Z,74.71
2023-04-18T10:13:55.846Z,74.76
2023-04-18T10:16:22.771Z,74.77
2023-04-18T10:18:50.672Z,74.52
2023-04-18T10:21:17.172Z,74.33
2023-04-18T10:23:43.666Z,74.20
2023-04-18T10:26:11.188Z,73.97
2023-04-18T10:28:57.235Z,73.28
2023-04-18T10:31:28.854Z,73.12
2023-04-18T10:36:28.314Z,72.98
2023-04-18T10:39:19.176Z,72.81
2023-04-18T10:41:51.001Z,72.81
2023-04-18T10:44:19.790Z,72.55
2023-04-18T10:47:06.431Z,72.63
2023-04-18T10:49:33.116Z,72.62
2023-04-18T10:52:01.288Z,72.59
2023-04-18T10:54:51.152Z,72.38
2023-04-18T10:57:17.742Z,72.44
2023-04-18T10:59:50.531Z,72.21
2023-04-18T11:02:32.205Z,71.80
2023-04-18T11:05:03.293Z,71.65
2023-04-18T11:07:46.147Z,71.59
2023-04-18T11:10:13.422Z,71.68
2023-04-18T11:12:41.299Z,71.61
2023-04-18T11:15:21.446Z,71.31
2023-04-18T11:18:04.703Z,71.30
2023-04-18T11:20:47.886Z,71.40
2023-04-18T11:23:21.404Z,71.75
2023-04-18T11:25:54.545Z,71.99
2023-04-18T11:28:22.323Z,71.98
2023-04-18T11:30:48.843Z,72.27
2023-04-18T11:33:16.583Z,72.18
2023-04-18T11:35:47.117Z,72.03
2023-04-18T11:38:15.840Z,71.73
2023-04-18T11:40:51.578Z,71.89
2023-04-18T11:43:22.826Z,71.93
2023-04-18T11:45:59.592Z,71.90
2023-04-18T11:48:40.128Z,71.74
2023-04-18T11:51:07.705Z,71.92
2023-04-18T11:53:35.927Z,71.72
2023-04-18T11:56:03.687Z,71.66
2023-04-18T11:58:32.220Z,71.84
2023-04-18T12:00:59.254Z,72.00
2023-04-18T12:03:27.438Z,72.07
2023-04-18T12:06:03.505Z,72.10
2023-04-18T12:08:32.034Z,71.33
2023-04-18T12:10:58.533Z,71.04
2023-04-18T12:13:26.923Z,70.78
2023-04-18T12:15:54.415Z,70.13
2023-04-18T12:18:21.452Z,69.94
2023-04-18T12:20:50.360Z,69.48
2023-04-18T12:23:32.500Z,68.98
2023-04-18T12:26:03.891Z,68.53
2023-04-18T12:28:31.019Z,68.25
2023-04-18T12:30:57.871Z,68.20
2023-04-18T12:33:24.621Z,68.08
2023-04-18T12:35:52.772Z,68.17
2023-04-18T12:38:23.670Z,67.92
2023-04-18T12:40:51.344Z,67.66
2023-04-18T12:43:18.555Z,67.56
2023-04-18T12:45:49.418Z,67.84
2023-04-18T12:48:15.924Z,67.95
2023-04-18T12:50:42.328Z,68.00
2023-04-18T12:53:08.729Z,68.11
2023-04-18T12:55:35.965Z,68.04
2023-04-18T12:58:02.500Z,68.02
2023-04-18T13:00:31.745Z,67.97
2023-04-18T13:02:58.738Z,67.84
2023-04-18T13:05:29.919Z,67.29
2023-04-18T13:08:15.090Z,66.98
2023-04-18T13:10:43.249Z,66.40
2023-04-18T13:13:09.706Z,65.85
2023-04-18T13:15:36.275Z,65.56
2023-04-18T13:18:05.950Z,65.50
2023-04-18T13:20:33.521Z,65.59
2023-04-18T13:23:00.179Z,65.86
2023-04-18T13:25:27.757Z,66.04
2023-04-18T13:27:54.248Z,66.29
2023-04-18T13:30:21.108Z,66.45
2023-04-18T13:32:47.627Z,66.42
2023-04-18T13:35:14.116Z,66.59
2023-04-18T13:37:40.615Z,66.20
2023-04-18T13:40:07.985Z,65.80
2023-04-18T13:42:36.385Z,65.71
2023-04-18T13:45:04.345Z,65.58
2023-04-18T13:47:31.422Z,65.53
2023-04-18T13:49:58.808Z,65.72
2023-04-18T13:52:26.935Z,65.85
2023-04-18T13:54:53.396Z,65.92
2023-04-18T13:57:19.905Z,66.17
2023-04-18T13:59:46.779Z,66.05
2023-04-18T14:02:13.380Z,65.81
2023-04-18T14:04:39.894Z,65.74
2023-04-18T14:07:07.919Z,65.62
2023-04-18T14:09:34.664Z,65.52
2023-04-18T14:12:02.018Z,65.58
2023-04-18T14:14:28.469Z,65.41
2023-04-18T14:16:54.959Z,65.40
2023-04-18T14:19:21.596Z,65.23
2023-04-18T14:21:50.950Z,64.91
2023-04-18T14:24:17.589Z,65.02
2023-04-18T14:26:44.092Z,64.91
2023-04-18T14:29:11.140Z,64.78
2023-04-18T14:31:37.578Z,64.48
2023-04-18T14:34:04.166Z,64.46
2023-04-18T14:36:31.732Z,64.25
2023-04-18T14:38:59.109Z,64.06
2023-04-18T14:41:25.559Z,64.01
2023-04-18T14:43:52.011Z,63.99
2023-04-18T14:46:18.521Z,63.80
2023-04-18T14:48:46.650Z,63.69
2023-04-18T14:51:15.296Z,63.55
2023-04-18T14:53:41.864Z,63.62
2023-04-18T14:56:08.341Z,63.58
2023-04-18T14:58:34.849Z,63.75
2023-04-18T15:01:01.287Z,63.61
2023-04-18T15:03:27.940Z,63.63
2023-04-18T15:05:55.055Z,63.36
2023-04-18T15:08:21.989Z,63.54
2023-04-18T15:10:48.446Z,63.70
2023-04-18T15:13:14.914Z,63.21
2023-04-18T15:15:41.410Z,63.55
2023-04-18T15:18:08.525Z,63.38
2023-04-18T15:20:36.981Z,63.73
2023-04-18T15:23:03.601Z,63.96
2023-04-18T15:25:30.620Z,64.42
2023-04-18T15:27:58.225Z,64.32
2023-04-18T15:30:25.186Z,64.54
2023-04-18T15:32:52.135Z,64.65
2023-04-18T15:35:18.833Z,64.85
2023-04-18T15:37:45.483Z,65.11
2023-04-18T15:40:16.067Z,65.14
2023-04-18T15:42:43.525Z,65.35
2023-04-18T15:45:10.868Z,65.37
2023-04-18T15:47:38.481Z,65.29
2023-04-18T15:50:05.614Z,65.40
2023-04-18T15:52:32.135Z,65.36
2023-04-18T15:54:58.726Z,65.39
2023-04-18T15:57:25.229Z,65.29
2023-04-18T15:59:54.378Z,65.48
2023-04-18T16:02:20.965Z,65.32
2023-04-18T16:04:47.494Z,65.12
2023-04-18T16:07:14.096Z,65.16
2023-04-18T16:09:40.602Z,65.21
2023-04-18T16:12:08.160Z,65.07
2023-04-18T16:14:34.789Z,65.13
2023-04-18T16:17:01.306Z,65.49
2023-04-18T16:19:27.744Z,65.60
2023-04-18T16:21:54.242Z,65.68
2023-04-18T16:24:20.768Z,65.54
2023-04-18T16:26:48.028Z,65.69
2023-04-18T16:29:14.522Z,65.78
2023-04-18T16:31:42.583Z,65.97
2023-04-18T16:34:09.488Z,66.02
2023-04-18T16:36:36.024Z,65.76
2023-04-18T16:39:02.450Z,66.14
2023-04-18T16:41:30.299Z,66.13
2023-04-18T16:43:57.148Z,66.32
2023-04-18T16:46:23.827Z,66.34
2023-04-18T16:48:52.331Z,66.25
2023-04-18T16:51:19.161Z,66.32
2023-04-18T16:53:46.695Z,66.51
2023-04-18T16:56:13.134Z,66.54
2023-04-18T16:58:39.557Z,66.62
2023-04-18T17:01:08.070Z,66.43
2023-04-18T17:03:34.747Z,66.54
2023-04-18T17:06:01.680Z,66.66
2023-04-18T17:08:32.862Z,66.85
2023-04-18T17:10:59.657Z,66.78
2023-04-18T17:13:27.250Z,66.66
2023-04-18T17:15:53.958Z,66.89
2023-04-18T17:18:20.456Z,66.95
2023-04-18T17:20:46.811Z,67.06
2023-04-18T17:23:13.376Z,67.05
2023-04-18T17:25:39.765Z,67.11
2023-04-18T17:28:06.275Z,67.25
2023-04-18T17:30:32.691Z,67.02
2023-04-18T17:32:59.106Z,67.25
2023-04-18T17:35:25.636Z,67.21
2023-04-18T17:37:52.822Z,67.38
2023-04-18T17:40:19.210Z,67.46
2023-04-18T17:42:45.592Z,67.36
2023-04-18T17:45:12.050Z,67.73
2023-04-18T17:47:38.786Z,67.66
2023-04-18T17:50:05.848Z,67.83
2023-04-18T17:52:32.539Z,67.79
2023-04-18T17:54:59.678Z,67.79
2023-04-18T17:57:26.678Z,67.81
2023-04-18T17:59:55.428Z,67.73
2023-04-18T18:02:23.449Z,68.25
2023-04-18T18:04:50.058Z,68.13
2023-04-18T18:07:16.652Z,68.36
2023-04-18T18:09:43.121Z,68.68
2023-04-18T18:12:12.484Z,68.58
2023-04-18T18:14:40.480Z,68.70
2023-04-18T18:17:07.086Z,69.04
2023-04-18T18:19:36.083Z,69.01
2023-04-18T18:22:02.642Z,69.24
2023-04-18T18:24:29.040Z,69.21
2023-04-18T18:26:56.238Z,69.43
2023-04-18T18:29:22.697Z,69.58
2023-04-18T18:31:49.224Z,69.56
2023-04-18T18:34:15.718Z,69.68
2023-04-18T18:36:42.262Z,69.72
2023-04-18T18:39:08.758Z,69.79
2023-04-18T18:41:35.478Z,70.05
2023-04-18T18:44:01.892Z,70.11
2023-04-18T18:46:28.348Z,70.11
2023-04-18T18:48:54.795Z,70.28
2023-04-18T18:51:21.217Z,70.17
2023-04-18T18:53:47.660Z,70.42
2023-04-18T18:56:14.647Z,70.30
2023-04-18T18:58:43.310Z,70.47
2023-04-18T19:01:11.518Z,70.62
2023-04-18T19:03:38.569Z,70.56
2023-04-18T19:06:07.013Z,70.71
2023-04-18T19:08:33.782Z,70.87
2023-04-18T19:11:00.252Z,70.80
2023-04-18T19:13:26.646Z,70.82
2023-04-18T19:15:53.623Z,70.73
2023-04-18T19:18:20.379Z,71.03
2023-04-18T19:20:47.221Z,71.07
2023-04-18T19:23:13.711Z,71.26
2023-04-18T19:25:40.272Z,71.34
2023-04-18T19:28:06.725Z,71.41
2023-04-18T19:30:34.737Z,71.47
2023-04-18T19:33:01.138Z,71.56
2023-04-18T19:35:27.691Z,71.42
2023-04-18T19:38:01.388Z,71.68
2023-04-18T19:40:28.892Z,71.67
2023-04-18T19:42:56.594Z,72.03
2023-04-18T19:45:24.435Z,71.93
2023-04-18T19:47:50.990Z,71.96
2023-04-18T19:50:17.986Z,72.20
2023-04-18T19:52:44.405Z,72.03
2023-04-18T19:55:11.090Z,72.21
2023-04-18T19:57:41.366Z,72.43
2023-04-18T20:00:09.294Z,72.29
2023-04-18T20:02:36.695Z,72.42
2023-04-18T20:05:04.912Z,72.39
2023-04-18T20:07:31.660Z,72.48
2023-04-18T20:09:58.170Z,72.58
2023-04-18T20:12:24.753Z,72.82
2023-04-18T20:14:51.895Z,72.74
2023-04-18T20:17:18.498Z,72.73
2023-04-18T20:19:47.054Z,72.79
2023-04-18T20:22:14.837Z,73.01
2023-04-18T20:24:41.654Z,73.01
2023-04-18T20:27:08.306Z,73.11
2023-04-18T20:29:34.744Z,73.13
2023-04-18T20:32:02.305Z,73.11
2023-04-18T20:34:30.005Z,73.15
2023-04-18T20:36:57.930Z,73.20
2023-04-18T20:39:24.305Z,73.24
2023-04-18T20:41:51.329Z,73.47
2023-04-18T20:44:22.104Z,73.54
2023-04-18T20:46:48.631Z,73.55
2023-04-18T20:49:15.531Z,73.44
2023-04-18T20:51:42.216Z,73.54
2023-04-18T20:54:08.690Z,73.51
2023-04-18T20:56:38.115Z,73.77
2023-04-18T20:59:04.898Z,73.78
2023-04-18T21:01:31.540Z,73.65
2023-04-18T21:03:58.306Z,73.71
2023-04-18T21:06:24.818Z,73.90
2023-04-18T21:08:51.270Z,73.93
2023-04-18T21:11:17.786Z,73.95
2023-04-18T21:13:44.248Z,73.95
2023-04-18T21:16:11.503Z,74.03
2023-04-18T21:18:37.950Z,73.98
2023-04-18T21:21:04.560Z,74.03
2023-04-18T21:23:31.062Z,74.05
2023-04-18T21:25:57.561Z,74.22
2023-04-18T21:28:23.953Z,74.20
2023-04-18T21:30:50.684Z,74.04
2023-04-18T21:33:17.111Z,74.26
2023-04-18T21:35:44.110Z,74.42
2023-04-18T21:38:10.641Z,74.32
2023-04-18T21:40:37.515Z,74.41
2023-04-18T21:43:03.982Z,74.40
2023-04-18T21:45:30.455Z,74.54
2023-04-18T21:47:57.009Z,74.55
2023-04-18T21:50:24.603Z,74.58
2023-04-18T21:52:51.013Z,74.73
2023-04-18T21:55:17.987Z,74.84
2023-04-18T21:57:44.393Z,74.97
2023-04-18T22:00:12.596Z,74.83
2023-04-18T22:02:39.093Z,74.93
2023-04-18T22:05:07.519Z,74.84
2023-04-18T22:07:40.703Z,75.00
2023-04-18T22:10:13.401Z,75.08
2023-04-18T22:12:40.054Z,74.89
2023-04-18T22:15:07.207Z,74.98
2023-04-18T22:17:34.785Z,75.14
2023-04-18T22:20:01.356Z,75.25
2023-04-18T22:22:27.753Z,75.21
2023-04-18T22:24:54.141Z,75.24
2023-04-18T22:27:20.611Z,75.14
2023-04-18T22:29:47.008Z,75.31
2023-04-18T22:32:13.344Z,75.39
2023-04-18T22:34:39.703Z,75.35
2023-04-18T22:37:06.182Z,75.44
2023-04-18T22:39:32.606Z,75.16
2023-04-18T22:41:58.984Z,75.41
2023-04-18T22:44:25.400Z,75.34
2023-04-18T22:46:54.507Z,75.28
2023-04-18T22:49:22.097Z,75.54
2023-04-18T22:51:48.543Z,75.61
2023-04-18T22:54:15.263Z,75.61
2023-04-18T22:56:41.921Z,75.65
2023-04-18T22:59:08.271Z,75.54
2023-04-18T23:01:34.657Z,75.63
2023-04-18T23:04:01.484Z,75.64
2023-04-18T23:06:28.283Z,75.75
2023-04-18T23:08:54.669Z,75.87
2023-04-18T23:11:21.526Z,75.73
2023-04-18T23:13:47.886Z,75.78
2023-04-18T23:16:14.346Z,75.85
2023-04-18T23:18:40.947Z,75.92
2023-04-18T23:21:07.392Z,75.90
2023-04-18T23:23:33.860Z,76.01
2023-04-18T23:26:00.565Z,75.99
2023-04-18T23:28:27.023Z,76.09
2023-04-18T23:30:53.497Z,76.06
2023-04-18T23:33:19.916Z,76.25
2023-04-18T23:35:46.396Z,76.32
2023-04-18T23:38:12.899Z,76.23
2023-04-18T23:40:39.338Z,76.31
2023-04-18T23:43:07.653Z,76.44
2023-04-18T23:45:34.039Z,76.50
2023-04-18T23:48:00.802Z,76.46
2023-04-18T23:50:27.258Z,76.60
2023-04-18T23:52:53.966Z,76.71
2023-04-18T23:55:20.680Z,76.84
2023-04-18T23:57:47.191Z,76.64
